KCBK/CBK METAR and TAF weather

Enter ICAO airport designator
Station Type Date Time Source
KCBK METAR 2018/01/21 12:15 UTC NOAA

KCBK 211215Z AUTO 35011KT 4SM BR OVC004 00/00 A2975 RMK AO2


Station Type Date Time Source
KCBK Decoded METAR 2018/01/21 12:15 UTC NOAA

Station name not available
Jan 21, 2018 - 07:15 AM EST / 2018.01.21 1215 UTC
Wind: from the N (350 degrees) at 13 MPH (11 KT):0
Visibility: 4 mile(s):0
Sky conditions: overcast
Weather: mist
Temperature: 32 F (0 C)
Windchill: 23 F (-5 C):1
Dew Point: 32 F (0 C)
Relative Humidity: 100%
Pressure (altimeter): 29.75 in. Hg (1007 hPa)
ob: KCBK 211215Z AUTO 35011KT 4SM BR OVC004 00/00 A2975 RMK AO2
cycle: 12

Station Type Date Time Source
KCBK TAF UTC NOAA

Error!


Example: see airport list